Arden Hills, Minnesota
Current Conditions -  °F | °C
As of 4:14 AM on Saturday 25 Oct 2014 (Local Time) from KANE Reporting Station
Clear Clear  
Wind Chill: 55°   Ceiling: Unl
Heat Index: 55°   Visibility: 10mi
Dew Point: 37°   Wind: 10mph
Humidity: 51%   Direction: 290°WNW
Pressure: 29.95"   Gusts: NA
Location:  45.0848°N, 93.136°W
Report Text: KANE 250914Z AUTO 29009KT 10SM CLR 13/03 A2995 RMK AO2
Loading
Personal Weather Stations






























Interactive Weather Map New forecast layout! Learn more

10-Day Weather Forecast

Advertisements
Track Severe Weather on mobile